sensor_id;sensor_type;location;lat;lon;timestamp;temperature;humidity
60701;DHT22;46541;49.894;10.886;2024-01-30T00:00:02;2.90;99.90
60701;DHT22;46541;49.894;10.886;2024-01-30T00:02:31;2.90;99.90
60701;DHT22;46541;49.894;10.886;2024-01-30T00:04:58;2.80;99.90
60701;DHT22;46541;49.894;10.886;2024-01-30T00:07:25;2.80;99.90
60701;DHT22;46541;49.894;10.886;2024-01-30T00:09:52;2.90;99.90
60701;DHT22;46541;49.894;10.886;2024-01-30T00:12:19;2.80;99.90
60701;DHT22;46541;49.894;10.886;2024-01-30T00:14:46;2.90;99.90
60701;DHT22;46541;49.894;10.886;2024-01-30T00:17:12;2.80;99.90
60701;DHT22;46541;49.894;10.886;2024-01-30T00:19:39;2.80;99.90
60701;DHT22;46541;49.894;10.886;2024-01-30T00:22:06;2.80;99.90
60701;DHT22;46541;49.894;10.886;2024-01-30T00:24:34;2.80;99.90
60701;DHT22;46541;49.894;10.886;2024-01-30T00:27:01;2.80;99.90
60701;DHT22;46541;49.894;10.886;2024-01-30T00:29:27;2.70;99.90
60701;DHT22;46541;49.894;10.886;2024-01-30T00:31:57;2.70;99.90
60701;DHT22;46541;49.894;10.886;2024-01-30T00:34:24;2.70;99.90
60701;DHT22;46541;49.894;10.886;2024-01-30T00:36:51;2.60;99.90
60701;DHT22;46541;49.894;10.886;2024-01-30T00:39:17;2.60;99.90
60701;DHT22;46541;49.894;10.886;2024-01-30T00:41:46;2.70;99.90
60701;DHT22;46541;49.894;10.886;2024-01-30T00:44:12;2.60;99.90
60701;DHT22;46541;49.894;10.886;2024-01-30T00:46:39;2.60;99.90
60701;DHT22;46541;49.894;10.886;2024-01-30T00:49:06;2.60;99.90
60701;DHT22;46541;49.894;10.886;2024-01-30T00:51:33;2.50;99.90
60701;DHT22;46541;49.894;10.886;2024-01-30T00:54:00;2.50;99.90
60701;DHT22;46541;49.894;10.886;2024-01-30T00:56:27;2.50;99.90
60701;DHT22;46541;49.894;10.886;2024-01-30T00:58:53;2.50;99.90
60701;DHT22;46541;49.894;10.886;2024-01-30T01:01:20;2.60;99.90
60701;DHT22;46541;49.894;10.886;2024-01-30T01:03:47;2.50;99.90
60701;DHT22;46541;49.894;10.886;2024-01-30T01:06:15;2.50;99.90
60701;DHT22;46541;49.894;10.886;2024-01-30T01:08:42;2.50;99.90
60701;DHT22;46541;49.894;10.886;2024-01-30T01:11:09;2.50;99.90
60701;DHT22;46541;49.894;10.886;2024-01-30T01:13:36;2.50;99.90
60701;DHT22;46541;49.894;10.886;2024-01-30T01:16:03;2.40;99.90
60701;DHT22;46541;49.894;10.886;2024-01-30T01:18:30;2.50;99.90
60701;DHT22;46541;49.894;10.886;2024-01-30T01:20:57;2.40;99.90
60701;DHT22;46541;49.894;10.886;2024-01-30T01:23:24;2.40;99.90
60701;DHT22;46541;49.894;10.886;2024-01-30T01:25:51;2.40;99.90
60701;DHT22;46541;49.894;10.886;2024-01-30T01:28:17;2.40;99.90
60701;DHT22;46541;49.894;10.886;2024-01-30T01:30:45;2.40;99.90
60701;DHT22;46541;49.894;10.886;2024-01-30T01:33:13;2.40;99.90
60701;DHT22;46541;49.894;10.886;2024-01-30T01:35:41;2.30;99.90
60701;DHT22;46541;49.894;10.886;2024-01-30T01:38:08;2.30;99.90
60701;DHT22;46541;49.894;10.886;2024-01-30T01:40:34;2.30;99.90
60701;DHT22;46541;49.894;10.886;2024-01-30T01:43:03;2.30;99.90
60701;DHT22;46541;49.894;10.886;2024-01-30T01:45:31;2.30;99.90
60701;DHT22;46541;49.894;10.886;2024-01-30T01:47:58;2.30;99.90
60701;DHT22;46541;49.894;10.886;2024-01-30T01:50:25;2.40;99.90
60701;DHT22;46541;49.894;10.886;2024-01-30T01:52:53;2.40;99.90
60701;DHT22;46541;49.894;10.886;2024-01-30T01:55:21;2.40;99.90
60701;DHT22;46541;49.894;10.886;2024-01-30T01:57:53;2.40;99.90
60701;DHT22;46541;49.894;10.886;2024-01-30T02:00:21;2.30;99.90
60701;DHT22;46541;49.894;10.886;2024-01-30T02:02:47;2.30;99.90
60701;DHT22;46541;49.894;10.886;2024-01-30T02:05:17;2.30;99.90
60701;DHT22;46541;49.894;10.886;2024-01-30T02:07:44;2.30;99.90
60701;DHT22;46541;49.894;10.886;2024-01-30T02:10:11;2.20;99.90
60701;DHT22;46541;49.894;10.886;2024-01-30T02:12:38;2.20;99.90
60701;DHT22;46541;49.894;10.886;2024-01-30T02:15:05;2.20;99.90
60701;DHT22;46541;49.894;10.886;2024-01-30T02:17:33;2.20;99.90
60701;DHT22;46541;49.894;10.886;2024-01-30T02:20:01;2.20;99.90
60701;DHT22;46541;49.894;10.886;2024-01-30T02:22:28;2.20;99.90
60701;DHT22;46541;49.894;10.886;2024-01-30T02:24:55;2.20;99.90
60701;DHT22;46541;49.894;10.886;2024-01-30T02:27:22;2.20;99.90
60701;DHT22;46541;49.894;10.886;2024-01-30T02:29:49;2.20;99.90
60701;DHT22;46541;49.894;10.886;2024-01-30T02:32:18;2.20;99.90
60701;DHT22;46541;49.894;10.886;2024-01-30T02:34:45;2.30;99.90
60701;DHT22;46541;49.894;10.886;2024-01-30T02:37:12;2.30;99.90
60701;DHT22;46541;49.894;10.886;2024-01-30T02:39:38;2.30;99.90
60701;DHT22;46541;49.894;10.886;2024-01-30T02:42:05;2.20;99.90
60701;DHT22;46541;49.894;10.886;2024-01-30T02:44:32;2.20;99.90
60701;DHT22;46541;49.894;10.886;2024-01-30T02:46:59;2.20;99.90
60701;DHT22;46541;49.894;10.886;2024-01-30T02:49:25;2.20;99.90
60701;DHT22;46541;49.894;10.886;2024-01-30T02:51:53;2.10;99.90
60701;DHT22;46541;49.894;10.886;2024-01-30T02:54:20;2.10;99.90
60701;DHT22;46541;49.894;10.886;2024-01-30T02:56:47;2.10;99.90
60701;DHT22;46541;49.894;10.886;2024-01-30T02:59:15;2.10;99.90
60701;DHT22;46541;49.894;10.886;2024-01-30T03:01:44;2.10;99.90
60701;DHT22;46541;49.894;10.886;2024-01-30T03:04:12;2.10;99.90
60701;DHT22;46541;49.894;10.886;2024-01-30T03:06:45;2.10;99.90
60701;DHT22;46541;49.894;10.886;2024-01-30T03:09:13;2.10;99.90
60701;DHT22;46541;49.894;10.886;2024-01-30T03:11:40;2.10;99.90
60701;DHT22;46541;49.894;10.886;2024-01-30T03:14:07;2.10;99.90
60701;DHT22;46541;49.894;10.886;2024-01-30T03:16:34;2.10;99.90
60701;DHT22;46541;49.894;10.886;2024-01-30T03:19:01;2.10;99.90
60701;DHT22;46541;49.894;10.886;2024-01-30T03:21:29;2.10;99.90
60701;DHT22;46541;49.894;10.886;2024-01-30T03:23:56;2.10;99.90
60701;DHT22;46541;49.894;10.886;2024-01-30T03:26:22;2.10;99.90
60701;DHT22;46541;49.894;10.886;2024-01-30T03:28:49;2.10;99.90
60701;DHT22;46541;49.894;10.886;2024-01-30T03:31:16;2.10;99.90
60701;DHT22;46541;49.894;10.886;2024-01-30T03:33:43;2.10;99.90
60701;DHT22;46541;49.894;10.886;2024-01-30T03:36:11;2.20;99.90
60701;DHT22;46541;49.894;10.886;2024-01-30T03:38:38;2.10;99.90
60701;DHT22;46541;49.894;10.886;2024-01-30T03:41:07;2.20;99.90
60701;DHT22;46541;49.894;10.886;2024-01-30T03:43:34;2.20;99.90
60701;DHT22;46541;49.894;10.886;2024-01-30T03:46:02;2.20;99.90
60701;DHT22;46541;49.894;10.886;2024-01-30T03:48:29;2.30;99.90
60701;DHT22;46541;49.894;10.886;2024-01-30T03:50:56;2.30;99.90
60701;DHT22;46541;49.894;10.886;2024-01-30T03:53:23;2.20;99.90
60701;DHT22;46541;49.894;10.886;2024-01-30T03:55:50;2.10;99.90
60701;DHT22;46541;49.894;10.886;2024-01-30T03:58:16;2.10;99.90
60701;DHT22;46541;49.894;10.886;2024-01-30T04:00:43;2.00;99.90
60701;DHT22;46541;49.894;10.886;2024-01-30T04:03:11;2.00;99.90
60701;DHT22;46541;49.894;10.886;2024-01-30T04:05:38;1.90;99.90
60701;DHT22;46541;49.894;10.886;2024-01-30T04:08:05;1.90;99.90
60701;DHT22;46541;49.894;10.886;2024-01-30T04:10:32;1.80;99.90
60701;DHT22;46541;49.894;10.886;2024-01-30T04:12:58;1.80;99.90
60701;DHT22;46541;49.894;10.886;2024-01-30T04:15:26;1.70;99.90
60701;DHT22;46541;49.894;10.886;2024-01-30T04:17:53;1.70;99.90
60701;DHT22;46541;49.894;10.886;2024-01-30T04:20:20;1.70;99.90
60701;DHT22;46541;49.894;10.886;2024-01-30T04:22:47;1.60;99.90
60701;DHT22;46541;49.894;10.886;2024-01-30T04:25:14;1.60;99.90
60701;DHT22;46541;49.894;10.886;2024-01-30T04:27:40;1.60;99.90
60701;DHT22;46541;49.894;10.886;2024-01-30T04:30:08;1.60;99.90
60701;DHT22;46541;49.894;10.886;2024-01-30T04:32:35;1.50;99.90
60701;DHT22;46541;49.894;10.886;2024-01-30T04:35:03;1.50;99.90
60701;DHT22;46541;49.894;10.886;2024-01-30T04:37:35;1.50;99.90
60701;DHT22;46541;49.894;10.886;2024-01-30T04:40:02;1.50;99.90
60701;DHT22;46541;49.894;10.886;2024-01-30T04:42:29;1.50;99.90
60701;DHT22;46541;49.894;10.886;2024-01-30T04:44:56;1.60;99.90
60701;DHT22;46541;49.894;10.886;2024-01-30T04:47:23;1.70;99.90
60701;DHT22;46541;49.894;10.886;2024-01-30T04:49:51;1.70;99.90
60701;DHT22;46541;49.894;10.886;2024-01-30T04:52:18;1.70;99.90
60701;DHT22;46541;49.894;10.886;2024-01-30T04:54:45;1.70;99.90
60701;DHT22;46541;49.894;10.886;2024-01-30T04:57:12;1.70;99.90
60701;DHT22;46541;49.894;10.886;2024-01-30T04:59:39;1.70;99.90
60701;DHT22;46541;49.894;10.886;2024-01-30T05:02:05;1.70;99.90
60701;DHT22;46541;49.894;10.886;2024-01-30T05:04:33;1.70;99.90
60701;DHT22;46541;49.894;10.886;2024-01-30T05:07:00;1.70;99.90
60701;DHT22;46541;49.894;10.886;2024-01-30T05:09:27;1.70;99.90
60701;DHT22;46541;49.894;10.886;2024-01-30T05:11:55;1.70;99.90
60701;DHT22;46541;49.894;10.886;2024-01-30T05:14:21;1.70;99.90
60701;DHT22;46541;49.894;10.886;2024-01-30T05:16:48;1.70;99.90
60701;DHT22;46541;49.894;10.886;2024-01-30T05:19:15;1.70;99.90
60701;DHT22;46541;49.894;10.886;2024-01-30T05:21:42;1.60;99.90
60701;DHT22;46541;49.894;10.886;2024-01-30T05:24:09;1.70;99.90
60701;DHT22;46541;49.894;10.886;2024-01-30T05:26:37;1.60;99.90
60701;DHT22;46541;49.894;10.886;2024-01-30T05:29:04;1.60;99.90
60701;DHT22;46541;49.894;10.886;2024-01-30T05:31:31;1.60;99.90
60701;DHT22;46541;49.894;10.886;2024-01-30T05:33:58;1.60;99.90
60701;DHT22;46541;49.894;10.886;2024-01-30T05:36:25;1.60;99.90
60701;DHT22;46541;49.894;10.886;2024-01-30T05:38:52;1.50;99.90
60701;DHT22;46541;49.894;10.886;2024-01-30T05:41:19;1.50;99.90
60701;DHT22;46541;49.894;10.886;2024-01-30T05:43:46;1.60;99.90
60701;DHT22;46541;49.894;10.886;2024-01-30T05:46:12;1.60;99.90
60701;DHT22;46541;49.894;10.886;2024-01-30T05:48:39;1.60;99.90
60701;DHT22;46541;49.894;10.886;2024-01-30T05:51:07;1.60;99.90
60701;DHT22;46541;49.894;10.886;2024-01-30T05:53:35;1.60;99.90
60701;DHT22;46541;49.894;10.886;2024-01-30T05:56:02;1.50;99.90
60701;DHT22;46541;49.894;10.886;2024-01-30T05:58:29;1.60;99.90
60701;DHT22;46541;49.894;10.886;2024-01-30T06:00:57;1.70;99.90
60701;DHT22;46541;49.894;10.886;2024-01-30T06:03:25;1.70;99.90
60701;DHT22;46541;49.894;10.886;2024-01-30T06:05:52;1.70;99.90
60701;DHT22;46541;49.894;10.886;2024-01-30T06:08:18;1.70;99.90
60701;DHT22;46541;49.894;10.886;2024-01-30T06:10:45;1.80;99.90
60701;DHT22;46541;49.894;10.886;2024-01-30T06:13:12;1.70;99.90
60701;DHT22;46541;49.894;10.886;2024-01-30T06:15:39;1.80;99.90
60701;DHT22;46541;49.894;10.886;2024-01-30T06:18:06;1.80;99.90
60701;DHT22;46541;49.894;10.886;2024-01-30T06:20:33;1.80;99.90
60701;DHT22;46541;49.894;10.886;2024-01-30T06:23:00;1.70;99.90
60701;DHT22;46541;49.894;10.886;2024-01-30T06:25:26;1.80;99.90
60701;DHT22;46541;49.894;10.886;2024-01-30T06:27:53;1.80;99.90
60701;DHT22;46541;49.894;10.886;2024-01-30T06:30:20;1.80;99.90
60701;DHT22;46541;49.894;10.886;2024-01-30T06:32:47;1.90;99.90
60701;DHT22;46541;49.894;10.886;2024-01-30T06:35:13;1.90;99.90
60701;DHT22;46541;49.894;10.886;2024-01-30T06:37:40;1.90;99.90
60701;DHT22;46541;49.894;10.886;2024-01-30T06:40:07;1.90;99.90
60701;DHT22;46541;49.894;10.886;2024-01-30T06:42:35;1.90;99.90
60701;DHT22;46541;49.894;10.886;2024-01-30T06:45:01;2.00;99.90
60701;DHT22;46541;49.894;10.886;2024-01-30T06:47:28;2.00;99.90
60701;DHT22;46541;49.894;10.886;2024-01-30T06:49:55;2.00;99.90
60701;DHT22;46541;49.894;10.886;2024-01-30T06:52:22;2.00;99.90
60701;DHT22;46541;49.894;10.886;2024-01-30T06:54:49;2.10;99.90
60701;DHT22;46541;49.894;10.886;2024-01-30T06:57:16;2.10;99.90
60701;DHT22;46541;49.894;10.886;2024-01-30T06:59:43;2.10;99.90
60701;DHT22;46541;49.894;10.886;2024-01-30T07:02:10;2.20;99.90
60701;DHT22;46541;49.894;10.886;2024-01-30T07:04:38;2.20;99.90
60701;DHT22;46541;49.894;10.886;2024-01-30T07:07:11;2.30;99.90
60701;DHT22;46541;49.894;10.886;2024-01-30T07:09:39;2.30;99.90
60701;DHT22;46541;49.894;10.886;2024-01-30T07:12:06;2.30;99.90
60701;DHT22;46541;49.894;10.886;2024-01-30T07:14:33;2.40;99.90
60701;DHT22;46541;49.894;10.886;2024-01-30T07:17:00;2.40;99.90
60701;DHT22;46541;49.894;10.886;2024-01-30T07:19:27;2.50;99.90
60701;DHT22;46541;49.894;10.886;2024-01-30T07:21:54;2.50;99.90
60701;DHT22;46541;49.894;10.886;2024-01-30T07:24:21;2.60;99.90
60701;DHT22;46541;49.894;10.886;2024-01-30T07:26:47;2.60;99.90
60701;DHT22;46541;49.894;10.886;2024-01-30T07:29:14;2.60;99.90
60701;DHT22;46541;49.894;10.886;2024-01-30T07:31:41;2.60;99.90
60701;DHT22;46541;49.894;10.886;2024-01-30T07:34:08;2.60;99.90
60701;DHT22;46541;49.894;10.886;2024-01-30T07:36:35;2.70;99.90
60701;DHT22;46541;49.894;10.886;2024-01-30T07:39:02;2.70;99.90
60701;DHT22;46541;49.894;10.886;2024-01-30T07:41:29;2.70;99.90
60701;DHT22;46541;49.894;10.886;2024-01-30T07:43:56;2.70;99.90
60701;DHT22;46541;49.894;10.886;2024-01-30T07:46:23;2.70;99.90
60701;DHT22;46541;49.894;10.886;2024-01-30T07:48:52;2.80;99.90
60701;DHT22;46541;49.894;10.886;2024-01-30T07:51:21;2.90;99.90
60701;DHT22;46541;49.894;10.886;2024-01-30T07:53:48;2.90;99.90
60701;DHT22;46541;49.894;10.886;2024-01-30T07:56:14;2.90;99.90
60701;DHT22;46541;49.894;10.886;2024-01-30T07:58:42;3.00;99.90
60701;DHT22;46541;49.894;10.886;2024-01-30T08:01:09;2.90;99.90
60701;DHT22;46541;49.894;10.886;2024-01-30T08:03:36;3.00;99.90
60701;DHT22;46541;49.894;10.886;2024-01-30T08:06:03;3.00;99.90
60701;DHT22;46541;49.894;10.886;2024-01-30T08:08:30;3.10;99.90
60701;DHT22;46541;49.894;10.886;2024-01-30T08:10:57;3.10;99.90
60701;DHT22;46541;49.894;10.886;2024-01-30T08:13:24;3.10;99.90
60701;DHT22;46541;49.894;10.886;2024-01-30T08:15:51;3.20;99.90
60701;DHT22;46541;49.894;10.886;2024-01-30T08:18:18;3.20;99.90
60701;DHT22;46541;49.894;10.886;2024-01-30T08:20:45;3.30;99.90
60701;DHT22;46541;49.894;10.886;2024-01-30T08:23:12;3.40;99.90
60701;DHT22;46541;49.894;10.886;2024-01-30T08:25:38;3.40;99.90
60701;DHT22;46541;49.894;10.886;2024-01-30T08:28:05;3.40;99.90
60701;DHT22;46541;49.894;10.886;2024-01-30T08:30:33;3.50;99.90
60701;DHT22;46541;49.894;10.886;2024-01-30T08:33:00;3.50;99.90
60701;DHT22;46541;49.894;10.886;2024-01-30T08:35:27;3.50;99.90
60701;DHT22;46541;49.894;10.886;2024-01-30T08:37:54;3.60;99.90
60701;DHT22;46541;49.894;10.886;2024-01-30T08:40:21;3.60;99.90
60701;DHT22;46541;49.894;10.886;2024-01-30T08:42:47;3.70;99.90
60701;DHT22;46541;49.894;10.886;2024-01-30T08:45:14;3.70;99.90
60701;DHT22;46541;49.894;10.886;2024-01-30T08:47:41;3.80;99.90
60701;DHT22;46541;49.894;10.886;2024-01-30T08:50:08;3.90;99.90
60701;DHT22;46541;49.894;10.886;2024-01-30T08:52:35;3.90;99.90
60701;DHT22;46541;49.894;10.886;2024-01-30T08:55:02;4.00;99.90
60701;DHT22;46541;49.894;10.886;2024-01-30T08:57:29;4.00;99.90
60701;DHT22;46541;49.894;10.886;2024-01-30T08:59:57;4.00;99.90
60701;DHT22;46541;49.894;10.886;2024-01-30T09:02:23;4.10;99.90
60701;DHT22;46541;49.894;10.886;2024-01-30T09:04:50;4.20;99.90
60701;DHT22;46541;49.894;10.886;2024-01-30T09:07:17;4.20;99.90
60701;DHT22;46541;49.894;10.886;2024-01-30T09:09:44;4.30;99.90
60701;DHT22;46541;49.894;10.886;2024-01-30T09:12:11;4.30;99.90
60701;DHT22;46541;49.894;10.886;2024-01-30T09:14:39;4.40;99.90
60701;DHT22;46541;49.894;10.886;2024-01-30T09:17:07;4.40;99.90
60701;DHT22;46541;49.894;10.886;2024-01-30T09:19:34;4.50;99.90
60701;DHT22;46541;49.894;10.886;2024-01-30T09:22:01;4.50;99.90
60701;DHT22;46541;49.894;10.886;2024-01-30T09:24:28;4.60;99.90
60701;DHT22;46541;49.894;10.886;2024-01-30T09:26:55;4.60;99.90
60701;DHT22;46541;49.894;10.886;2024-01-30T09:29:22;4.70;99.90
60701;DHT22;46541;49.894;10.886;2024-01-30T09:31:48;4.80;99.90
60701;DHT22;46541;49.894;10.886;2024-01-30T09:34:15;4.90;99.90
60701;DHT22;46541;49.894;10.886;2024-01-30T09:36:42;4.90;99.90
60701;DHT22;46541;49.894;10.886;2024-01-30T09:39:09;5.00;99.90
60701;DHT22;46541;49.894;10.886;2024-01-30T09:41:49;5.00;99.90
60701;DHT22;46541;49.894;10.886;2024-01-30T09:44:16;5.10;99.90
60701;DHT22;46541;49.894;10.886;2024-01-30T09:46:46;5.10;99.90
60701;DHT22;46541;49.894;10.886;2024-01-30T09:49:14;5.20;99.90
60701;DHT22;46541;49.894;10.886;2024-01-30T09:51:44;5.30;99.90
60701;DHT22;46541;49.894;10.886;2024-01-30T09:54:14;5.30;99.90
60701;DHT22;46541;49.894;10.886;2024-01-30T09:56:40;5.40;99.90
60701;DHT22;46541;49.894;10.886;2024-01-30T09:59:07;5.40;99.90
60701;DHT22;46541;49.894;10.886;2024-01-30T10:01:34;5.50;99.90
60701;DHT22;46541;49.894;10.886;2024-01-30T10:04:01;5.60;99.90
60701;DHT22;46541;49.894;10.886;2024-01-30T10:06:29;5.60;99.90
60701;DHT22;46541;49.894;10.886;2024-01-30T10:08:56;5.60;99.90
60701;DHT22;46541;49.894;10.886;2024-01-30T10:11:24;5.70;99.90
60701;DHT22;46541;49.894;10.886;2024-01-30T10:13:51;5.70;99.90
60701;DHT22;46541;49.894;10.886;2024-01-30T10:16:18;5.80;99.90
60701;DHT22;46541;49.894;10.886;2024-01-30T10:18:45;5.80;99.90
60701;DHT22;46541;49.894;10.886;2024-01-30T10:21:12;5.90;99.90
60701;DHT22;46541;49.894;10.886;2024-01-30T10:23:39;5.90;99.90
60701;DHT22;46541;49.894;10.886;2024-01-30T10:26:07;6.00;99.90
60701;DHT22;46541;49.894;10.886;2024-01-30T10:28:34;6.10;99.90
60701;DHT22;46541;49.894;10.886;2024-01-30T10:31:02;6.20;99.90
60701;DHT22;46541;49.894;10.886;2024-01-30T10:33:33;6.20;99.90
60701;DHT22;46541;49.894;10.886;2024-01-30T10:36:01;6.20;99.90
60701;DHT22;46541;49.894;10.886;2024-01-30T10:38:29;6.30;99.90
60701;DHT22;46541;49.894;10.886;2024-01-30T10:41:01;6.40;99.90
60701;DHT22;46541;49.894;10.886;2024-01-30T10:43:32;6.40;99.90
60701;DHT22;46541;49.894;10.886;2024-01-30T10:46:19;6.50;99.90
60701;DHT22;46541;49.894;10.886;2024-01-30T10:48:57;6.50;99.90
60701;DHT22;46541;49.894;10.886;2024-01-30T10:51:28;6.70;99.90
60701;DHT22;46541;49.894;10.886;2024-01-30T10:53:56;6.80;99.90
60701;DHT22;46541;49.894;10.886;2024-01-30T10:56:25;6.80;99.90
60701;DHT22;46541;49.894;10.886;2024-01-30T10:58:53;6.90;99.90
60701;DHT22;46541;49.894;10.886;2024-01-30T11:01:21;7.00;99.90
60701;DHT22;46541;49.894;10.886;2024-01-30T11:03:52;7.00;99.90
60701;DHT22;46541;49.894;10.886;2024-01-30T11:06:23;7.20;99.90
60701;DHT22;46541;49.894;10.886;2024-01-30T11:09:05;7.20;99.90
60701;DHT22;46541;49.894;10.886;2024-01-30T11:11:52;7.20;99.90
60701;DHT22;46541;49.894;10.886;2024-01-30T11:14:24;7.30;99.90
60701;DHT22;46541;49.894;10.886;2024-01-30T11:16:57;7.30;99.90
60701;DHT22;46541;49.894;10.886;2024-01-30T11:19:25;7.40;99.90
60701;DHT22;46541;49.894;10.886;2024-01-30T11:21:53;7.40;99.90
60701;DHT22;46541;49.894;10.886;2024-01-30T11:24:21;7.40;99.90
60701;DHT22;46541;49.894;10.886;2024-01-30T11:26:57;7.40;99.90
60701;DHT22;46541;49.894;10.886;2024-01-30T11:29:26;7.50;99.90
60701;DHT22;46541;49.894;10.886;2024-01-30T11:31:58;7.50;99.90
60701;DHT22;46541;49.894;10.886;2024-01-30T11:34:25;7.60;99.90
60701;DHT22;46541;49.894;10.886;2024-01-30T11:36:56;7.50;99.90
60701;DHT22;46541;49.894;10.886;2024-01-30T11:39:26;7.60;99.90
60701;DHT22;46541;49.894;10.886;2024-01-30T11:41:53;7.60;99.90
60701;DHT22;46541;49.894;10.886;2024-01-30T11:44:20;7.70;99.90
60701;DHT22;46541;49.894;10.886;2024-01-30T11:46:52;7.70;99.90
60701;DHT22;46541;49.894;10.886;2024-01-30T11:49:19;7.80;99.90
60701;DHT22;46541;49.894;10.886;2024-01-30T11:51:46;7.80;99.90
60701;DHT22;46541;49.894;10.886;2024-01-30T11:54:18;7.80;99.90
60701;DHT22;46541;49.894;10.886;2024-01-30T11:56:45;7.90;99.90
60701;DHT22;46541;49.894;10.886;2024-01-30T11:59:12;7.90;99.90
60701;DHT22;46541;49.894;10.886;2024-01-30T12:01:38;7.90;99.90
60701;DHT22;46541;49.894;10.886;2024-01-30T12:04:05;7.90;99.90
60701;DHT22;46541;49.894;10.886;2024-01-30T12:06:37;7.90;99.90
60701;DHT22;46541;49.894;10.886;2024-01-30T12:09:04;8.00;99.90
60701;DHT22;46541;49.894;10.886;2024-01-30T12:11:31;7.90;99.90
60701;DHT22;46541;49.894;10.886;2024-01-30T12:13:58;8.00;99.90
60701;DHT22;46541;49.894;10.886;2024-01-30T12:16:25;8.00;99.90
60701;DHT22;46541;49.894;10.886;2024-01-30T12:18:59;8.10;99.90
60701;DHT22;46541;49.894;10.886;2024-01-30T12:21:28;8.10;99.90
60701;DHT22;46541;49.894;10.886;2024-01-30T12:23:56;8.20;99.90
60701;DHT22;46541;49.894;10.886;2024-01-30T12:26:24;8.20;99.90
60701;DHT22;46541;49.894;10.886;2024-01-30T12:28:55;8.20;99.90
60701;DHT22;46541;49.894;10.886;2024-01-30T12:31:26;8.20;99.90
60701;DHT22;46541;49.894;10.886;2024-01-30T12:33:56;8.20;99.90
60701;DHT22;46541;49.894;10.886;2024-01-30T12:36:25;8.20;99.90
60701;DHT22;46541;49.894;10.886;2024-01-30T12:38:52;8.20;99.90
60701;DHT22;46541;49.894;10.886;2024-01-30T12:41:20;8.20;99.90
60701;DHT22;46541;49.894;10.886;2024-01-30T12:43:47;8.30;99.90
60701;DHT22;46541;49.894;10.886;2024-01-30T12:46:17;8.30;99.90
60701;DHT22;46541;49.894;10.886;2024-01-30T12:48:44;8.40;99.90
60701;DHT22;46541;49.894;10.886;2024-01-30T12:51:11;8.50;99.90
60701;DHT22;46541;49.894;10.886;2024-01-30T12:53:38;8.60;99.90
60701;DHT22;46541;49.894;10.886;2024-01-30T12:56:05;8.60;99.90
60701;DHT22;46541;49.894;10.886;2024-01-30T12:58:31;8.60;99.90
60701;DHT22;46541;49.894;10.886;2024-01-30T13:00:58;8.60;99.90
60701;DHT22;46541;49.894;10.886;2024-01-30T13:03:25;8.60;99.90
60701;DHT22;46541;49.894;10.886;2024-01-30T13:05:53;8.60;99.90
60701;DHT22;46541;49.894;10.886;2024-01-30T13:08:19;8.60;99.90
60701;DHT22;46541;49.894;10.886;2024-01-30T13:10:46;8.60;99.90
60701;DHT22;46541;49.894;10.886;2024-01-30T13:13:16;8.60;99.90
60701;DHT22;46541;49.894;10.886;2024-01-30T13:15:47;8.60;99.90
60701;DHT22;46541;49.894;10.886;2024-01-30T13:18:15;8.60;99.90
60701;DHT22;46541;49.894;10.886;2024-01-30T13:20:42;8.70;99.90
60701;DHT22;46541;49.894;10.886;2024-01-30T13:23:09;8.60;99.90
60701;DHT22;46541;49.894;10.886;2024-01-30T13:25:36;8.70;99.90
60701;DHT22;46541;49.894;10.886;2024-01-30T13:28:03;8.80;99.90
60701;DHT22;46541;49.894;10.886;2024-01-30T13:30:30;8.80;99.90
60701;DHT22;46541;49.894;10.886;2024-01-30T13:32:57;8.80;99.90
60701;DHT22;46541;49.894;10.886;2024-01-30T13:35:25;8.80;99.90
60701;DHT22;46541;49.894;10.886;2024-01-30T13:37:52;8.70;99.90
60701;DHT22;46541;49.894;10.886;2024-01-30T13:40:18;8.70;99.90
60701;DHT22;46541;49.894;10.886;2024-01-30T13:42:45;8.70;99.90
60701;DHT22;46541;49.894;10.886;2024-01-30T13:45:12;8.80;99.90
60701;DHT22;46541;49.894;10.886;2024-01-30T13:47:39;8.80;99.90
60701;DHT22;46541;49.894;10.886;2024-01-30T13:50:06;8.70;99.90
60701;DHT22;46541;49.894;10.886;2024-01-30T13:52:34;8.70;99.90
60701;DHT22;46541;49.894;10.886;2024-01-30T13:55:10;8.60;99.90
60701;DHT22;46541;49.894;10.886;2024-01-30T13:57:37;8.60;99.90
60701;DHT22;46541;49.894;10.886;2024-01-30T14:00:05;8.60;99.90
60701;DHT22;46541;49.894;10.886;2024-01-30T14:02:35;8.60;99.90
60701;DHT22;46541;49.894;10.886;2024-01-30T14:05:02;8.60;99.90
60701;DHT22;46541;49.894;10.886;2024-01-30T14:07:31;8.60;99.90
60701;DHT22;46541;49.894;10.886;2024-01-30T14:09:58;8.60;99.90
60701;DHT22;46541;49.894;10.886;2024-01-30T14:12:25;8.60;99.90
60701;DHT22;46541;49.894;10.886;2024-01-30T14:14:52;8.60;99.90
60701;DHT22;46541;49.894;10.886;2024-01-30T14:17:18;8.60;99.90
60701;DHT22;46541;49.894;10.886;2024-01-30T14:19:45;8.60;99.90
60701;DHT22;46541;49.894;10.886;2024-01-30T14:22:12;8.60;99.90
60701;DHT22;46541;49.894;10.886;2024-01-30T14:24:39;8.60;99.90
60701;DHT22;46541;49.894;10.886;2024-01-30T14:27:06;8.50;99.90
60701;DHT22;46541;49.894;10.886;2024-01-30T14:29:34;8.50;99.90
60701;DHT22;46541;49.894;10.886;2024-01-30T14:32:01;8.50;99.90
60701;DHT22;46541;49.894;10.886;2024-01-30T14:34:28;8.50;99.90
60701;DHT22;46541;49.894;10.886;2024-01-30T14:36:55;8.50;99.90
60701;DHT22;46541;49.894;10.886;2024-01-30T14:39:22;8.40;99.90
60701;DHT22;46541;49.894;10.886;2024-01-30T14:41:49;8.40;99.90
60701;DHT22;46541;49.894;10.886;2024-01-30T14:44:16;8.40;99.90
60701;DHT22;46541;49.894;10.886;2024-01-30T14:46:42;8.30;99.90
60701;DHT22;46541;49.894;10.886;2024-01-30T14:49:10;8.30;99.90
60701;DHT22;46541;49.894;10.886;2024-01-30T14:51:37;8.30;99.90
60701;DHT22;46541;49.894;10.886;2024-01-30T14:54:04;8.30;99.90
60701;DHT22;46541;49.894;10.886;2024-01-30T14:56:31;8.20;99.90
60701;DHT22;46541;49.894;10.886;2024-01-30T14:58:59;8.20;99.90
60701;DHT22;46541;49.894;10.886;2024-01-30T15:01:26;8.20;99.90
60701;DHT22;46541;49.894;10.886;2024-01-30T15:03:53;8.20;99.90
60701;DHT22;46541;49.894;10.886;2024-01-30T15:06:22;8.20;99.90
60701;DHT22;46541;49.894;10.886;2024-01-30T15:08:51;8.10;99.90
60701;DHT22;46541;49.894;10.886;2024-01-30T15:11:18;8.10;99.90
60701;DHT22;46541;49.894;10.886;2024-01-30T15:13:45;8.10;99.90
60701;DHT22;46541;49.894;10.886;2024-01-30T15:16:12;8.10;99.90
60701;DHT22;46541;49.894;10.886;2024-01-30T15:18:39;8.00;99.90
60701;DHT22;46541;49.894;10.886;2024-01-30T15:21:06;8.00;99.90
60701;DHT22;46541;49.894;10.886;2024-01-30T15:23:33;8.00;99.90
60701;DHT22;46541;49.894;10.886;2024-01-30T15:25:59;7.90;99.90
60701;DHT22;46541;49.894;10.886;2024-01-30T15:28:36;7.90;99.90
60701;DHT22;46541;49.894;10.886;2024-01-30T15:31:04;7.90;99.90